sensor_id;sensor_type;location;lat;lon;timestamp;P1;durP1;ratioP1;P2;durP2;ratioP2
42066;SDS011;27734;47.028;28.820;2023-09-30T00:01:02;24.13;;;9.17;;
42066;SDS011;27734;47.028;28.820;2023-09-30T00:03:36;20.50;;;8.67;;
42066;SDS011;27734;47.028;28.820;2023-09-30T00:06:04;22.53;;;9.53;;
42066;SDS011;27734;47.028;28.820;2023-09-30T00:08:33;22.50;;;9.30;;
42066;SDS011;27734;47.028;28.820;2023-09-30T00:11:01;21.00;;;9.27;;
42066;SDS011;27734;47.028;28.820;2023-09-30T00:13:32;22.20;;;8.75;;
42066;SDS011;27734;47.028;28.820;2023-09-30T00:16:01;20.77;;;9.53;;
42066;SDS011;27734;47.028;28.820;2023-09-30T00:18:32;20.77;;;9.30;;
42066;SDS011;27734;47.028;28.820;2023-09-30T00:21:01;23.10;;;10.03;;
42066;SDS011;27734;47.028;28.820;2023-09-30T00:23:30;21.60;;;9.47;;
42066;SDS011;27734;47.028;28.820;2023-09-30T00:25:58;19.77;;;9.40;;
42066;SDS011;27734;47.028;28.820;2023-09-30T00:28:30;22.27;;;9.70;;
42066;SDS011;27734;47.028;28.820;2023-09-30T00:30:59;21.43;;;9.77;;
42066;SDS011;27734;47.028;28.820;2023-09-30T00:33:28;22.27;;;9.50;;
42066;SDS011;27734;47.028;28.820;2023-09-30T00:35:56;21.57;;;9.83;;
42066;SDS011;27734;47.028;28.820;2023-09-30T00:38:25;19.37;;;9.40;;
42066;SDS011;27734;47.028;28.820;2023-09-30T00:40:53;19.43;;;9.03;;
42066;SDS011;27734;47.028;28.820;2023-09-30T00:43:22;28.85;;;9.50;;
42066;SDS011;27734;47.028;28.820;2023-09-30T00:45:51;20.60;;;9.07;;
42066;SDS011;27734;47.028;28.820;2023-09-30T00:48:25;22.27;;;9.70;;
42066;SDS011;27734;47.028;28.820;2023-09-30T00:50:53;19.83;;;9.80;;
42066;SDS011;27734;47.028;28.820;2023-09-30T00:53:23;22.23;;;10.07;;
42066;SDS011;27734;47.028;28.820;2023-09-30T00:55:52;22.47;;;9.50;;
42066;SDS011;27734;47.028;28.820;2023-09-30T00:58:23;22.97;;;10.27;;
42066;SDS011;27734;47.028;28.820;2023-09-30T01:00:55;23.50;;;10.63;;
42066;SDS011;27734;47.028;28.820;2023-09-30T01:03:26;23.30;;;10.10;;
42066;SDS011;27734;47.028;28.820;2023-09-30T01:05:55;20.45;;;9.95;;
42066;SDS011;27734;47.028;28.820;2023-09-30T01:08:24;24.83;;;10.00;;
42066;SDS011;27734;47.028;28.820;2023-09-30T01:10:54;22.07;;;9.60;;
42066;SDS011;27734;47.028;28.820;2023-09-30T01:13:23;22.17;;;10.03;;
42066;SDS011;27734;47.028;28.820;2023-09-30T01:16:03;22.30;;;10.07;;
42066;SDS011;27734;47.028;28.820;2023-09-30T01:18:33;19.07;;;9.70;;
42066;SDS011;27734;47.028;28.820;2023-09-30T01:21:02;20.00;;;10.00;;
42066;SDS011;27734;47.028;28.820;2023-09-30T01:23:32;20.73;;;9.33;;
42066;SDS011;27734;47.028;28.820;2023-09-30T01:26:02;19.43;;;9.87;;
42066;SDS011;27734;47.028;28.820;2023-09-30T01:28:33;20.43;;;9.50;;
42066;SDS011;27734;47.028;28.820;2023-09-30T01:31:01;21.30;;;10.50;;
42066;SDS011;27734;47.028;28.820;2023-09-30T01:33:31;22.87;;;10.03;;
42066;SDS011;27734;47.028;28.820;2023-09-30T01:36:01;24.47;;;10.43;;
42066;SDS011;27734;47.028;28.820;2023-09-30T01:38:30;20.20;;;9.90;;
42066;SDS011;27734;47.028;28.820;2023-09-30T01:40:59;21.40;;;9.33;;
42066;SDS011;27734;47.028;28.820;2023-09-30T01:43:28;22.77;;;10.20;;
42066;SDS011;27734;47.028;28.820;2023-09-30T01:45:56;20.00;;;9.77;;
42066;SDS011;27734;47.028;28.820;2023-09-30T01:48:25;20.47;;;10.27;;
42066;SDS011;27734;47.028;28.820;2023-09-30T01:50:54;23.40;;;10.40;;
42066;SDS011;27734;47.028;28.820;2023-09-30T01:53:22;24.10;;;10.00;;
42066;SDS011;27734;47.028;28.820;2023-09-30T01:55:53;20.07;;;10.43;;
42066;SDS011;27734;47.028;28.820;2023-09-30T01:58:21;27.07;;;10.30;;
42066;SDS011;27734;47.028;28.820;2023-09-30T02:00:52;20.30;;;10.07;;
42066;SDS011;27734;47.028;28.820;2023-09-30T02:03:21;20.23;;;9.40;;
42066;SDS011;27734;47.028;28.820;2023-09-30T02:05:50;18.47;;;9.40;;
42066;SDS011;27734;47.028;28.820;2023-09-30T02:08:18;20.30;;;9.17;;
42066;SDS011;27734;47.028;28.820;2023-09-30T02:10:47;20.97;;;9.77;;
42066;SDS011;27734;47.028;28.820;2023-09-30T02:13:19;23.47;;;10.17;;
42066;SDS011;27734;47.028;28.820;2023-09-30T02:15:48;22.57;;;10.23;;
42066;SDS011;27734;47.028;28.820;2023-09-30T02:18:16;21.77;;;10.27;;
42066;SDS011;27734;47.028;28.820;2023-09-30T02:20:45;22.03;;;9.90;;
42066;SDS011;27734;47.028;28.820;2023-09-30T02:23:14;20.47;;;9.23;;
42066;SDS011;27734;47.028;28.820;2023-09-30T02:25:45;26.20;;;9.93;;
42066;SDS011;27734;47.028;28.820;2023-09-30T02:28:14;18.77;;;9.93;;
42066;SDS011;27734;47.028;28.820;2023-09-30T02:30:42;20.67;;;10.20;;
42066;SDS011;27734;47.028;28.820;2023-09-30T02:33:11;22.60;;;10.23;;
42066;SDS011;27734;47.028;28.820;2023-09-30T02:35:43;23.03;;;10.77;;
42066;SDS011;27734;47.028;28.820;2023-09-30T02:38:13;23.10;;;10.50;;
42066;SDS011;27734;47.028;28.820;2023-09-30T02:40:44;26.55;;;9.90;;
42066;SDS011;27734;47.028;28.820;2023-09-30T02:43:15;18.07;;;10.10;;
42066;SDS011;27734;47.028;28.820;2023-09-30T02:45:43;19.00;;;9.80;;
42066;SDS011;27734;47.028;28.820;2023-09-30T02:48:13;21.33;;;10.13;;
42066;SDS011;27734;47.028;28.820;2023-09-30T02:50:42;21.20;;;10.37;;
42066;SDS011;27734;47.028;28.820;2023-09-30T02:53:12;19.20;;;10.07;;
42066;SDS011;27734;47.028;28.820;2023-09-30T02:55:41;25.30;;;10.67;;
42066;SDS011;27734;47.028;28.820;2023-09-30T02:58:11;23.73;;;10.27;;
42066;SDS011;27734;47.028;28.820;2023-09-30T03:00:39;23.33;;;10.47;;
42066;SDS011;27734;47.028;28.820;2023-09-30T03:03:08;21.70;;;10.63;;
42066;SDS011;27734;47.028;28.820;2023-09-30T03:05:37;20.47;;;10.23;;
42066;SDS011;27734;47.028;28.820;2023-09-30T03:08:05;21.40;;;9.97;;
42066;SDS011;27734;47.028;28.820;2023-09-30T03:10:34;23.17;;;10.53;;
42066;SDS011;27734;47.028;28.820;2023-09-30T03:13:07;20.35;;;10.25;;
42066;SDS011;27734;47.028;28.820;2023-09-30T03:15:36;19.60;;;9.97;;
42066;SDS011;27734;47.028;28.820;2023-09-30T03:18:05;23.57;;;10.50;;
42066;SDS011;27734;47.028;28.820;2023-09-30T03:20:34;21.97;;;10.70;;
42066;SDS011;27734;47.028;28.820;2023-09-30T03:23:09;20.90;;;10.30;;
42066;SDS011;27734;47.028;28.820;2023-09-30T03:25:40;23.00;;;10.80;;
42066;SDS011;27734;47.028;28.820;2023-09-30T03:28:09;22.63;;;10.20;;
42066;SDS011;27734;47.028;28.820;2023-09-30T03:30:39;30.80;;;11.70;;
42066;SDS011;27734;47.028;28.820;2023-09-30T03:33:08;22.40;;;10.63;;
42066;SDS011;27734;47.028;28.820;2023-09-30T03:35:37;24.03;;;10.37;;
42066;SDS011;27734;47.028;28.820;2023-09-30T03:38:05;22.40;;;11.37;;
42066;SDS011;27734;47.028;28.820;2023-09-30T03:40:36;21.93;;;10.47;;
42066;SDS011;27734;47.028;28.820;2023-09-30T03:43:05;20.07;;;11.17;;
42066;SDS011;27734;47.028;28.820;2023-09-30T03:45:34;23.80;;;10.83;;
42066;SDS011;27734;47.028;28.820;2023-09-30T03:48:04;20.23;;;10.77;;
42066;SDS011;27734;47.028;28.820;2023-09-30T03:50:33;23.47;;;11.13;;
42066;SDS011;27734;47.028;28.820;2023-09-30T03:53:02;22.60;;;10.30;;
42066;SDS011;27734;47.028;28.820;2023-09-30T03:55:33;19.90;;;10.63;;
42066;SDS011;27734;47.028;28.820;2023-09-30T03:58:01;23.83;;;10.70;;
42066;SDS011;27734;47.028;28.820;2023-09-30T04:00:31;23.80;;;11.13;;
42066;SDS011;27734;47.028;28.820;2023-09-30T04:02:59;24.30;;;11.70;;
42066;SDS011;27734;47.028;28.820;2023-09-30T04:05:29;21.10;;;10.90;;
42066;SDS011;27734;47.028;28.820;2023-09-30T04:08:03;25.72;;;12.23;;
42066;SDS011;27734;47.028;28.820;2023-09-30T04:10:32;22.57;;;10.93;;
42066;SDS011;27734;47.028;28.820;2023-09-30T04:13:01;21.53;;;11.30;;
42066;SDS011;27734;47.028;28.820;2023-09-30T04:15:30;25.60;;;12.30;;
42066;SDS011;27734;47.028;28.820;2023-09-30T04:17:58;26.30;;;11.57;;
42066;SDS011;27734;47.028;28.820;2023-09-30T04:20:27;29.80;;;12.30;;
42066;SDS011;27734;47.028;28.820;2023-09-30T04:22:56;22.27;;;11.27;;
42066;SDS011;27734;47.028;28.820;2023-09-30T04:25:25;23.83;;;11.30;;
42066;SDS011;27734;47.028;28.820;2023-09-30T04:27:54;25.13;;;11.67;;
42066;SDS011;27734;47.028;28.820;2023-09-30T04:30:23;28.25;;;12.20;;
42066;SDS011;27734;47.028;28.820;2023-09-30T04:32:52;23.63;;;11.23;;
42066;SDS011;27734;47.028;28.820;2023-09-30T04:35:21;24.03;;;11.47;;
42066;SDS011;27734;47.028;28.820;2023-09-30T04:37:53;24.95;;;11.30;;
42066;SDS011;27734;47.028;28.820;2023-09-30T04:40:22;21.43;;;11.97;;
42066;SDS011;27734;47.028;28.820;2023-09-30T04:42:50;22.10;;;11.90;;
42066;SDS011;27734;47.028;28.820;2023-09-30T04:45:22;24.23;;;11.40;;
42066;SDS011;27734;47.028;28.820;2023-09-30T04:47:51;25.43;;;12.10;;
42066;SDS011;27734;47.028;28.820;2023-09-30T04:50:20;24.90;;;13.03;;
42066;SDS011;27734;47.028;28.820;2023-09-30T04:52:49;24.30;;;12.17;;
42066;SDS011;27734;47.028;28.820;2023-09-30T04:55:19;26.33;;;12.03;;
42066;SDS011;27734;47.028;28.820;2023-09-30T04:57:48;23.57;;;12.47;;
42066;SDS011;27734;47.028;28.820;2023-09-30T05:00:17;22.53;;;11.53;;
42066;SDS011;27734;47.028;28.820;2023-09-30T05:02:51;23.60;;;11.70;;
42066;SDS011;27734;47.028;28.820;2023-09-30T05:05:20;26.10;;;12.53;;
42066;SDS011;27734;47.028;28.820;2023-09-30T05:07:49;28.40;;;12.30;;
42066;SDS011;27734;47.028;28.820;2023-09-30T05:10:18;26.43;;;12.30;;
42066;SDS011;27734;47.028;28.820;2023-09-30T05:12:46;23.40;;;11.80;;
42066;SDS011;27734;47.028;28.820;2023-09-30T05:15:15;20.97;;;11.77;;
42066;SDS011;27734;47.028;28.820;2023-09-30T05:17:46;22.67;;;12.10;;
42066;SDS011;27734;47.028;28.820;2023-09-30T05:20:16;23.03;;;11.93;;
42066;SDS011;27734;47.028;28.820;2023-09-30T05:22:45;25.27;;;11.70;;
42066;SDS011;27734;47.028;28.820;2023-09-30T05:25:15;22.27;;;11.60;;
42066;SDS011;27734;47.028;28.820;2023-09-30T05:27:44;27.10;;;12.03;;
42066;SDS011;27734;47.028;28.820;2023-09-30T05:30:14;27.43;;;11.87;;
42066;SDS011;27734;47.028;28.820;2023-09-30T05:32:43;28.33;;;11.10;;
42066;SDS011;27734;47.028;28.820;2023-09-30T05:35:13;25.87;;;11.30;;
42066;SDS011;27734;47.028;28.820;2023-09-30T05:37:43;26.10;;;11.53;;
42066;SDS011;27734;47.028;28.820;2023-09-30T05:40:12;27.73;;;12.30;;
42066;SDS011;27734;47.028;28.820;2023-09-30T05:42:48;24.80;;;12.35;;
42066;SDS011;27734;47.028;28.820;2023-09-30T05:45:17;28.07;;;11.93;;
42066;SDS011;27734;47.028;28.820;2023-09-30T05:47:46;25.83;;;11.93;;
42066;SDS011;27734;47.028;28.820;2023-09-30T05:50:15;23.00;;;11.37;;
42066;SDS011;27734;47.028;28.820;2023-09-30T05:52:44;22.40;;;11.30;;
42066;SDS011;27734;47.028;28.820;2023-09-30T05:55:12;26.17;;;12.07;;
42066;SDS011;27734;47.028;28.820;2023-09-30T05:57:43;28.10;;;11.70;;
42066;SDS011;27734;47.028;28.820;2023-09-30T06:00:12;21.47;;;11.37;;
42066;SDS011;27734;47.028;28.820;2023-09-30T06:02:55;21.37;;;11.37;;
42066;SDS011;27734;47.028;28.820;2023-09-30T06:05:24;21.13;;;11.23;;
42066;SDS011;27734;47.028;28.820;2023-09-30T06:07:53;25.10;;;10.83;;
42066;SDS011;27734;47.028;28.820;2023-09-30T06:10:22;21.07;;;11.10;;
42066;SDS011;27734;47.028;28.820;2023-09-30T06:12:52;25.27;;;12.10;;
42066;SDS011;27734;47.028;28.820;2023-09-30T06:15:22;25.80;;;10.73;;
42066;SDS011;27734;47.028;28.820;2023-09-30T06:17:52;25.73;;;11.40;;
42066;SDS011;27734;47.028;28.820;2023-09-30T06:20:22;24.90;;;10.63;;
42066;SDS011;27734;47.028;28.820;2023-09-30T06:22:53;20.87;;;10.00;;
42066;SDS011;27734;47.028;28.820;2023-09-30T06:25:22;22.90;;;10.90;;
42066;SDS011;27734;47.028;28.820;2023-09-30T06:27:51;20.33;;;10.10;;
42066;SDS011;27734;47.028;28.820;2023-09-30T06:30:21;24.23;;;9.83;;
42066;SDS011;27734;47.028;28.820;2023-09-30T06:32:56;19.60;;;9.97;;
42066;SDS011;27734;47.028;28.820;2023-09-30T06:35:26;20.10;;;9.17;;
42066;SDS011;27734;47.028;28.820;2023-09-30T06:37:57;23.73;;;9.67;;
42066;SDS011;27734;47.028;28.820;2023-09-30T06:40:26;22.10;;;9.70;;
42066;SDS011;27734;47.028;28.820;2023-09-30T06:42:55;19.20;;;8.80;;
42066;SDS011;27734;47.028;28.820;2023-09-30T06:45:24;21.83;;;9.70;;
42066;SDS011;27734;47.028;28.820;2023-09-30T06:47:53;24.57;;;9.80;;
42066;SDS011;27734;47.028;28.820;2023-09-30T06:50:22;20.47;;;9.20;;
42066;SDS011;27734;47.028;28.820;2023-09-30T06:52:50;20.20;;;9.30;;
42066;SDS011;27734;47.028;28.820;2023-09-30T06:55:19;27.63;;;9.60;;
42066;SDS011;27734;47.028;28.820;2023-09-30T06:57:48;20.60;;;10.30;;
42066;SDS011;27734;47.028;28.820;2023-09-30T07:00:16;21.70;;;9.40;;
42066;SDS011;27734;47.028;28.820;2023-09-30T07:02:45;19.87;;;9.00;;
42066;SDS011;27734;47.028;28.820;2023-09-30T07:05:14;25.37;;;9.70;;
42066;SDS011;27734;47.028;28.820;2023-09-30T07:07:43;24.00;;;9.60;;
42066;SDS011;27734;47.028;28.820;2023-09-30T07:10:12;19.17;;;9.20;;
42066;SDS011;27734;47.028;28.820;2023-09-30T07:12:41;19.90;;;9.60;;
42066;SDS011;27734;47.028;28.820;2023-09-30T07:15:10;22.20;;;9.47;;
42066;SDS011;27734;47.028;28.820;2023-09-30T07:17:40;20.27;;;9.53;;
42066;SDS011;27734;47.028;28.820;2023-09-30T07:20:10;17.73;;;9.20;;
42066;SDS011;27734;47.028;28.820;2023-09-30T07:22:39;20.07;;;8.90;;
42066;SDS011;27734;47.028;28.820;2023-09-30T07:25:08;22.97;;;9.40;;
42066;SDS011;27734;47.028;28.820;2023-09-30T07:27:37;18.80;;;9.50;;
42066;SDS011;27734;47.028;28.820;2023-09-30T07:30:07;19.87;;;8.97;;
42066;SDS011;27734;47.028;28.820;2023-09-30T07:32:39;23.30;;;9.25;;
42066;SDS011;27734;47.028;28.820;2023-09-30T07:35:09;17.17;;;8.33;;
42066;SDS011;27734;47.028;28.820;2023-09-30T07:37:39;22.67;;;8.83;;
42066;SDS011;27734;47.028;28.820;2023-09-30T07:40:09;23.10;;;9.07;;
42066;SDS011;27734;47.028;28.820;2023-09-30T07:42:39;19.50;;;9.00;;
42066;SDS011;27734;47.028;28.820;2023-09-30T07:45:08;19.63;;;9.03;;
42066;SDS011;27734;47.028;28.820;2023-09-30T07:47:44;21.13;;;9.43;;
42066;SDS011;27734;47.028;28.820;2023-09-30T07:50:13;18.37;;;8.90;;
42066;SDS011;27734;47.028;28.820;2023-09-30T07:52:42;20.10;;;8.50;;
42066;SDS011;27734;47.028;28.820;2023-09-30T07:55:11;22.23;;;9.23;;
42066;SDS011;27734;47.028;28.820;2023-09-30T07:57:41;19.27;;;8.50;;
42066;SDS011;27734;47.028;28.820;2023-09-30T08:00:11;21.70;;;9.60;;
42066;SDS011;27734;47.028;28.820;2023-09-30T08:02:42;24.77;;;9.03;;
42066;SDS011;27734;47.028;28.820;2023-09-30T08:05:11;19.77;;;8.80;;
42066;SDS011;27734;47.028;28.820;2023-09-30T08:07:40;19.95;;;8.60;;
42066;SDS011;27734;47.028;28.820;2023-09-30T08:10:09;18.53;;;8.90;;
42066;SDS011;27734;47.028;28.820;2023-09-30T08:12:40;18.57;;;8.80;;
42066;SDS011;27734;47.028;28.820;2023-09-30T08:15:09;21.23;;;9.17;;
42066;SDS011;27734;47.028;28.820;2023-09-30T08:17:39;21.53;;;8.53;;
42066;SDS011;27734;47.028;28.820;2023-09-30T08:20:08;23.63;;;8.80;;
42066;SDS011;27734;47.028;28.820;2023-09-30T08:22:38;18.53;;;8.53;;
42066;SDS011;27734;47.028;28.820;2023-09-30T08:25:08;21.63;;;8.50;;
42066;SDS011;27734;47.028;28.820;2023-09-30T08:27:49;20.10;;;8.40;;
42066;SDS011;27734;47.028;28.820;2023-09-30T08:30:19;19.30;;;8.50;;
42066;SDS011;27734;47.028;28.820;2023-09-30T08:32:47;23.07;;;8.20;;
42066;SDS011;27734;47.028;28.820;2023-09-30T08:35:16;20.03;;;8.37;;
42066;SDS011;27734;47.028;28.820;2023-09-30T08:37:45;23.07;;;8.33;;
42066;SDS011;27734;47.028;28.820;2023-09-30T08:40:13;18.20;;;8.63;;
42066;SDS011;27734;47.028;28.820;2023-09-30T08:45:16;21.03;;;8.13;;
42066;SDS011;27734;47.028;28.820;2023-09-30T08:47:45;16.33;;;7.43;;
42066;SDS011;27734;47.028;28.820;2023-09-30T08:50:15;20.43;;;8.40;;
42066;SDS011;27734;47.028;28.820;2023-09-30T08:52:45;17.40;;;8.23;;
42066;SDS011;27734;47.028;28.820;2023-09-30T08:55:14;26.20;;;8.90;;
42066;SDS011;27734;47.028;28.820;2023-09-30T08:57:43;22.40;;;8.83;;
42066;SDS011;27734;47.028;28.820;2023-09-30T09:00:14;19.63;;;8.83;;
42066;SDS011;27734;47.028;28.820;2023-09-30T09:02:43;21.57;;;8.80;;
42066;SDS011;27734;47.028;28.820;2023-09-30T09:05:11;19.50;;;7.63;;
42066;SDS011;27734;47.028;28.820;2023-09-30T09:07:40;16.97;;;7.63;;
42066;SDS011;27734;47.028;28.820;2023-09-30T09:10:10;19.47;;;8.30;;
42066;SDS011;27734;47.028;28.820;2023-09-30T09:12:40;18.47;;;7.87;;
42066;SDS011;27734;47.028;28.820;2023-09-30T09:15:20;20.83;;;8.13;;
42066;SDS011;27734;47.028;28.820;2023-09-30T09:17:51;18.90;;;8.20;;
42066;SDS011;27734;47.028;28.820;2023-09-30T09:20:20;18.07;;;8.20;;
42066;SDS011;27734;47.028;28.820;2023-09-30T09:22:50;16.53;;;7.70;;
42066;SDS011;27734;47.028;28.820;2023-09-30T09:25:21;17.10;;;8.10;;
42066;SDS011;27734;47.028;28.820;2023-09-30T09:27:50;19.30;;;7.73;;
42066;SDS011;27734;47.028;28.820;2023-09-30T09:30:20;16.40;;;7.53;;
42066;SDS011;27734;47.028;28.820;2023-09-30T09:32:54;17.67;;;7.60;;
42066;SDS011;27734;47.028;28.820;2023-09-30T09:35:27;18.07;;;7.13;;
42066;SDS011;27734;47.028;28.820;2023-09-30T09:37:57;17.27;;;7.40;;
42066;SDS011;27734;47.028;28.820;2023-09-30T09:40:27;15.53;;;7.30;;
42066;SDS011;27734;47.028;28.820;2023-09-30T09:42:57;15.27;;;7.03;;
42066;SDS011;27734;47.028;28.820;2023-09-30T09:45:29;16.50;;;7.00;;
42066;SDS011;27734;47.028;28.820;2023-09-30T09:48:00;13.90;;;6.80;;
42066;SDS011;27734;47.028;28.820;2023-09-30T09:50:32;13.47;;;6.70;;
42066;SDS011;27734;47.028;28.820;2023-09-30T09:53:03;13.60;;;6.23;;
42066;SDS011;27734;47.028;28.820;2023-09-30T09:55:33;13.40;;;6.37;;
42066;SDS011;27734;47.028;28.820;2023-09-30T09:58:05;12.50;;;6.50;;
42066;SDS011;27734;47.028;28.820;2023-09-30T10:00:37;13.50;;;6.30;;
42066;SDS011;27734;47.028;28.820;2023-09-30T10:03:08;13.90;;;5.83;;
42066;SDS011;27734;47.028;28.820;2023-09-30T10:05:36;11.93;;;5.80;;
42066;SDS011;27734;47.028;28.820;2023-09-30T10:08:08;11.83;;;6.20;;
42066;SDS011;27734;47.028;28.820;2023-09-30T10:10:41;11.43;;;6.00;;
42066;SDS011;27734;47.028;28.820;2023-09-30T10:13:19;14.50;;;5.70;;
42066;SDS011;27734;47.028;28.820;2023-09-30T10:19:18;14.90;;;6.10;;
42066;SDS011;27734;47.028;28.820;2023-09-30T10:24:49;12.93;;;6.37;;
42066;SDS011;27734;47.028;28.820;2023-09-30T10:27:32;11.27;;;6.07;;
42066;SDS011;27734;47.028;28.820;2023-09-30T10:30:10;11.67;;;6.20;;
42066;SDS011;27734;47.028;28.820;2023-09-30T10:35:43;12.83;;;5.80;;
42066;SDS011;27734;47.028;28.820;2023-09-30T10:41:10;11.37;;;5.90;;
42066;SDS011;27734;47.028;28.820;2023-09-30T10:43:58;13.23;;;5.70;;
42066;SDS011;27734;47.028;28.820;2023-09-30T10:50:03;14.23;;;6.10;;
42066;SDS011;27734;47.028;28.820;2023-09-30T10:52:53;11.97;;;6.30;;
42066;SDS011;27734;47.028;28.820;2023-09-30T10:55:22;14.23;;;6.20;;
42066;SDS011;27734;47.028;28.820;2023-09-30T10:57:52;11.77;;;5.83;;
42066;SDS011;27734;47.028;28.820;2023-09-30T11:00:21;10.07;;;5.97;;
42066;SDS011;27734;47.028;28.820;2023-09-30T11:02:50;10.63;;;6.20;;
42066;SDS011;27734;47.028;28.820;2023-09-30T11:05:20;10.97;;;5.83;;
42066;SDS011;27734;47.028;28.820;2023-09-30T11:07:50;12.27;;;6.10;;
42066;SDS011;27734;47.028;28.820;2023-09-30T11:10:22;13.73;;;6.13;;
42066;SDS011;27734;47.028;28.820;2023-09-30T11:12:54;15.73;;;6.40;;
42066;SDS011;27734;47.028;28.820;2023-09-30T11:17:52;13.47;;;6.03;;
42066;SDS011;27734;47.028;28.820;2023-09-30T11:20:21;11.53;;;6.37;;
42066;SDS011;27734;47.028;28.820;2023-09-30T11:22:51;11.57;;;6.17;;
42066;SDS011;27734;47.028;28.820;2023-09-30T11:25:19;12.13;;;6.20;;
42066;SDS011;27734;47.028;28.820;2023-09-30T11:27:48;13.10;;;6.50;;
42066;SDS011;27734;47.028;28.820;2023-09-30T11:30:17;13.63;;;5.93;;
42066;SDS011;27734;47.028;28.820;2023-09-30T11:32:47;16.60;;;5.97;;
42066;SDS011;27734;47.028;28.820;2023-09-30T11:35:25;15.63;;;7.00;;
42066;SDS011;27734;47.028;28.820;2023-09-30T11:37:55;15.13;;;7.10;;
42066;SDS011;27734;47.028;28.820;2023-09-30T11:40:23;18.53;;;6.77;;
42066;SDS011;27734;47.028;28.820;2023-09-30T11:43:08;15.27;;;6.67;;
42066;SDS011;27734;47.028;28.820;2023-09-30T11:45:38;13.80;;;6.67;;
42066;SDS011;27734;47.028;28.820;2023-09-30T11:48:16;14.80;;;6.57;;
42066;SDS011;27734;47.028;28.820;2023-09-30T11:50:47;12.63;;;6.67;;
42066;SDS011;27734;47.028;28.820;2023-09-30T11:53:17;11.10;;;6.10;;
42066;SDS011;27734;47.028;28.820;2023-09-30T11:55:47;14.37;;;6.37;;
42066;SDS011;27734;47.028;28.820;2023-09-30T11:58:16;13.03;;;6.53;;
42066;SDS011;27734;47.028;28.820;2023-09-30T12:00:46;12.67;;;6.33;;
42066;SDS011;27734;47.028;28.820;2023-09-30T12:03:17;12.27;;;6.67;;
42066;SDS011;27734;47.028;28.820;2023-09-30T12:05:47;13.23;;;6.37;;
42066;SDS011;27734;47.028;28.820;2023-09-30T12:08:16;14.83;;;6.77;;
42066;SDS011;27734;47.028;28.820;2023-09-30T12:10:45;13.37;;;6.77;;
42066;SDS011;27734;47.028;28.820;2023-09-30T12:13:14;14.17;;;6.17;;
42066;SDS011;27734;47.028;28.820;2023-09-30T12:15:43;14.13;;;6.70;;
42066;SDS011;27734;47.028;28.820;2023-09-30T12:18:11;13.50;;;6.20;;
42066;SDS011;27734;47.028;28.820;2023-09-30T12:20:43;15.90;;;6.30;;
42066;SDS011;27734;47.028;28.820;2023-09-30T12:23:12;13.87;;;6.73;;
42066;SDS011;27734;47.028;28.820;2023-09-30T12:25:41;13.37;;;6.27;;
42066;SDS011;27734;47.028;28.820;2023-09-30T12:28:09;14.00;;;6.67;;
42066;SDS011;27734;47.028;28.820;2023-09-30T12:30:38;13.97;;;6.73;;
42066;SDS011;27734;47.028;28.820;2023-09-30T12:33:07;12.27;;;6.40;;
42066;SDS011;27734;47.028;28.820;2023-09-30T12:35:35;15.97;;;6.77;;
42066;SDS011;27734;47.028;28.820;2023-09-30T12:38:04;12.10;;;6.00;;
42066;SDS011;27734;47.028;28.820;2023-09-30T12:40:32;12.73;;;6.17;;
42066;SDS011;27734;47.028;28.820;2023-09-30T12:43:01;13.00;;;6.57;;
42066;SDS011;27734;47.028;28.820;2023-09-30T12:45:30;14.23;;;6.23;;
42066;SDS011;27734;47.028;28.820;2023-09-30T12:47:58;14.77;;;6.33;;
42066;SDS011;27734;47.028;28.820;2023-09-30T12:50:27;14.40;;;6.50;;
42066;SDS011;27734;47.028;28.820;2023-09-30T12:52:56;11.47;;;6.00;;
42066;SDS011;27734;47.028;28.820;2023-09-30T12:55:24;11.87;;;6.07;;
42066;SDS011;27734;47.028;28.820;2023-09-30T12:57:53;13.77;;;6.40;;
42066;SDS011;27734;47.028;28.820;2023-09-30T13:00:22;11.63;;;6.13;;
42066;SDS011;27734;47.028;28.820;2023-09-30T13:02:51;12.30;;;6.03;;
42066;SDS011;27734;47.028;28.820;2023-09-30T13:05:20;13.80;;;6.30;;
42066;SDS011;27734;47.028;28.820;2023-09-30T13:07:49;11.53;;;6.10;;
42066;SDS011;27734;47.028;28.820;2023-09-30T13:10:19;14.80;;;6.50;;
42066;SDS011;27734;47.028;28.820;2023-09-30T13:12:49;13.40;;;5.73;;
42066;SDS011;27734;47.028;28.820;2023-09-30T13:15:19;10.97;;;6.00;;
42066;SDS011;27734;47.028;28.820;2023-09-30T13:17:50;10.90;;;6.10;;
42066;SDS011;27734;47.028;28.820;2023-09-30T13:20:18;12.87;;;6.23;;
42066;SDS011;27734;47.028;28.820;2023-09-30T13:22:49;11.17;;;5.97;;
42066;SDS011;27734;47.028;28.820;2023-09-30T13:25:17;16.77;;;6.17;;
42066;SDS011;27734;47.028;28.820;2023-09-30T13:27:46;13.73;;;6.60;;
42066;SDS011;27734;47.028;28.820;2023-09-30T13:30:15;12.83;;;6.00;;
42066;SDS011;27734;47.028;28.820;2023-09-30T13:32:44;12.60;;;6.17;;
42066;SDS011;27734;47.028;28.820;2023-09-30T13:35:13;14.67;;;6.47;;
42066;SDS011;27734;47.028;28.820;2023-09-30T13:37:43;16.30;;;6.30;;
42066;SDS011;27734;47.028;28.820;2023-09-30T13:40:12;10.73;;;5.70;;
42066;SDS011;27734;47.028;28.820;2023-09-30T13:42:41;12.77;;;6.03;;
42066;SDS011;27734;47.028;28.820;2023-09-30T13:45:11;10.40;;;5.60;;
42066;SDS011;27734;47.028;28.820;2023-09-30T13:47:40;14.50;;;5.93;;
42066;SDS011;27734;47.028;28.820;2023-09-30T13:50:09;11.77;;;5.57;;
42066;SDS011;27734;47.028;28.820;2023-09-30T13:52:38;9.30;;;5.20;;
42066;SDS011;27734;47.028;28.820;2023-09-30T13:55:07;15.03;;;6.00;;
42066;SDS011;27734;47.028;28.820;2023-09-30T13:57:36;17.40;;;6.07;;
42066;SDS011;27734;47.028;28.820;2023-09-30T14:00:07;12.17;;;5.90;;
42066;SDS011;27734;47.028;28.820;2023-09-30T14:02:37;13.93;;;5.30;;
42066;SDS011;27734;47.028;28.820;2023-09-30T14:05:06;11.90;;;5.70;;
42066;SDS011;27734;47.028;28.820;2023-09-30T14:07:36;10.27;;;5.53;;
42066;SDS011;27734;47.028;28.820;2023-09-30T14:10:08;9.73;;;5.10;;
42066;SDS011;27734;47.028;28.820;2023-09-30T14:12:37;15.37;;;5.63;;
42066;SDS011;27734;47.028;28.820;2023-09-30T14:15:08;11.87;;;6.00;;
42066;SDS011;27734;47.028;28.820;2023-09-30T14:17:37;13.83;;;5.63;;
42066;SDS011;27734;47.028;28.820;2023-09-30T14:20:08;12.80;;;5.70;;
42066;SDS011;27734;47.028;28.820;2023-09-30T14:22:39;11.77;;;5.70;;
42066;SDS011;27734;47.028;28.820;2023-09-30T14:25:08;13.97;;;6.10;;
42066;SDS011;27734;47.028;28.820;2023-09-30T14:27:37;11.83;;;6.00;;
42066;SDS011;27734;47.028;28.820;2023-09-30T14:30:07;13.87;;;5.67;;
42066;SDS011;27734;47.028;28.820;2023-09-30T14:32:38;14.50;;;6.40;;
42066;SDS011;27734;47.028;28.820;2023-09-30T14:35:07;14.13;;;6.30;;
42066;SDS011;27734;47.028;28.820;2023-09-30T14:37:37;13.37;;;6.13;;
42066;SDS011;27734;47.028;28.820;2023-09-30T14:40:06;13.00;;;5.70;;
42066;SDS011;27734;47.028;28.820;2023-09-30T14:42:40;11.97;;;5.97;;
42066;SDS011;27734;47.028;28.820;2023-09-30T14:45:09;13.03;;;5.67;;
42066;SDS011;27734;47.028;28.820;2023-09-30T14:47:38;12.20;;;5.60;;
42066;SDS011;27734;47.028;28.820;2023-09-30T14:50:09;9.67;;;5.90;;
42066;SDS011;27734;47.028;28.820;2023-09-30T14:52:38;10.07;;;6.07;;
42066;SDS011;27734;47.028;28.820;2023-09-30T14:55:07;9.57;;;5.10;;